createdAt,value
2019-01-15T00:00:52.174Z,3.90
2019-01-15T00:15:50.540Z,4.58
2019-01-15T00:30:50.905Z,3.10
2019-01-15T00:45:50.778Z,3.05
2019-01-15T01:00:51.855Z,2.52
2019-01-15T01:15:52.703Z,2.40
2019-01-15T01:30:51.129Z,1.92
2019-01-15T01:45:50.979Z,2.65
2019-01-15T02:00:50.948Z,2.47
2019-01-15T02:15:50.818Z,2.30
2019-01-15T02:30:53.284Z,2.30
2019-01-15T02:45:51.162Z,2.40
2019-01-15T03:00:51.142Z,1.80
2019-01-15T03:15:51.026Z,2.20
2019-01-15T03:30:51.758Z,2.00
2019-01-15T03:45:51.269Z,2.60
2019-01-15T04:00:51.265Z,2.30
2019-01-15T04:15:51.169Z,2.50
2019-01-15T04:30:52.542Z,2.50
2019-01-15T04:45:50.462Z,2.80
2019-01-15T05:00:51.380Z,3.20
2019-01-15T05:15:51.303Z,3.72
2019-01-15T05:30:50.792Z,3.52
2019-01-15T05:45:52.696Z,3.90
2019-01-15T06:00:50.615Z,4.22
2019-01-15T06:15:50.501Z,4.37
2019-01-15T06:30:51.023Z,3.90
2019-01-15T06:45:50.832Z,4.97
2019-01-15T07:00:51.773Z,4.92
2019-01-15T07:15:50.269Z,5.70
2019-01-15T07:30:55.352Z,4.90
2019-01-15T07:45:51.067Z,5.00
2019-01-15T08:00:50.959Z,5.12
2019-01-15T08:15:50.440Z,4.62
2019-01-15T08:30:51.230Z,5.33
2019-01-15T08:45:51.081Z,4.40
2019-01-15T09:00:51.055Z,4.05
2019-01-15T09:15:51.047Z,3.95
2019-01-15T09:30:51.339Z,4.12
2019-01-15T09:45:52.200Z,4.65
2019-01-15T10:00:52.665Z,4.33
2019-01-15T10:15:53.069Z,4.40
2019-01-15T10:45:50.489Z,4.10
2019-01-15T11:00:51.352Z,4.28
2019-01-15T11:15:51.250Z,3.25
2019-01-15T11:30:50.635Z,3.00
2019-01-15T11:45:50.525Z,3.83
2019-01-15T12:00:58.606Z,3.55
2019-01-15T12:15:58.373Z,3.37
2019-01-15T13:00:55.851Z,3.60
2019-01-15T13:15:55.517Z,4.20
2019-01-15T13:30:59.477Z,3.70
2019-01-15T13:46:00.743Z,4.20
2019-01-15T14:15:56.278Z,4.03
2019-01-15T15:00:56.061Z,5.40
2019-01-15T15:16:03.493Z,6.12
2019-01-15T15:31:00.183Z,6.85
2019-01-15T16:30:59.867Z,6.10
2019-01-15T17:46:00.211Z,7.47
2019-01-15T18:00:57.228Z,7.55
2019-01-15T18:15:56.519Z,8.15
2019-01-15T18:45:57.806Z,9.10
2019-01-15T19:45:55.552Z,7.33
2019-01-15T20:16:00.704Z,6.37
2019-01-15T20:30:56.107Z,6.47
2019-01-15T21:30:56.900Z,6.12
2019-01-15T22:30:56.671Z,5.08
2019-01-15T22:45:55.959Z,5.65
2019-01-15T23:00:56.805Z,4.70
2019-01-15T23:30:56.610Z,4.35
2019-01-15T23:45:59.301Z,3.65
